createdAt,value
2018-07-26T00:01:26.701Z,98856.29
2018-07-26T00:03:54.963Z,98857.10
2018-07-26T00:06:23.235Z,98852.59
2018-07-26T00:08:51.508Z,98853.91
2018-07-26T00:11:19.687Z,98856.61
2018-07-26T00:13:47.970Z,98859.45
2018-07-26T00:16:16.239Z,98855.63
2018-07-26T00:18:44.631Z,98848.58
2018-07-26T00:21:12.906Z,98849.24
2018-07-26T00:23:41.146Z,98857.61
2018-07-26T00:26:09.658Z,98858.27
2018-07-26T00:28:37.915Z,98858.27
2018-07-26T00:31:06.314Z,98854.95
2018-07-26T00:33:34.584Z,98858.28
2018-07-26T00:36:02.841Z,98858.29
2018-07-26T00:38:30.766Z,98858.47
2018-07-26T00:40:59.024Z,98850.25
2018-07-26T00:43:27.257Z,98855.45
2018-07-26T00:45:55.422Z,98851.42
2018-07-26T00:48:23.713Z,98850.44
2018-07-26T00:50:51.989Z,98854.62
2018-07-26T00:53:20.366Z,98858.45
2018-07-26T00:55:48.653Z,98858.92
2018-07-26T00:58:16.918Z,98860.28
2018-07-26T01:00:45.098Z,98861.61
2018-07-26T01:03:13.569Z,98861.62
2018-07-26T01:05:41.853Z,98858.58
2018-07-26T01:08:10.238Z,98865.27
2018-07-26T01:10:38.509Z,98866.61
2018-07-26T01:13:06.789Z,98865.41
2018-07-26T01:15:35.162Z,98860.41
2018-07-26T01:18:03.546Z,98855.55
2018-07-26T01:20:32.009Z,98850.89
2018-07-26T01:23:00.295Z,98855.11
2018-07-26T01:25:28.358Z,98856.55
2018-07-26T01:27:56.741Z,98855.53
2018-07-26T01:30:25.222Z,98858.91
2018-07-26T01:32:53.604Z,98852.38
2018-07-26T01:35:21.978Z,98853.54
2018-07-26T01:37:50.354Z,98853.54
2018-07-26T01:40:18.521Z,98852.91
2018-07-26T01:43:56.323Z,98861.25
2018-07-26T01:46:25.680Z,98860.20
2018-07-26T01:48:54.016Z,98862.50
2018-07-26T01:51:22.389Z,98857.47
2018-07-26T01:53:50.657Z,98867.85
2018-07-26T01:56:19.137Z,98861.52
2018-07-26T01:58:47.618Z,98856.66
2018-07-26T02:01:15.992Z,98856.80
2018-07-26T02:03:44.382Z,98853.42
2018-07-26T02:06:12.554Z,98853.28
2018-07-26T02:08:40.942Z,98855.64
2018-07-26T02:11:09.001Z,98860.81
2018-07-26T02:13:37.382Z,98865.98
2018-07-26T02:16:05.749Z,98857.61
2018-07-26T02:18:34.237Z,98865.48
2018-07-26T02:21:02.718Z,98863.80
2018-07-26T02:23:31.197Z,98866.91
2018-07-26T02:25:59.452Z,98862.45
2018-07-26T02:28:27.742Z,98868.56
2018-07-26T02:30:56.221Z,98868.78
2018-07-26T02:33:24.401Z,98875.12
2018-07-26T02:35:52.876Z,98870.48
2018-07-26T02:38:21.046Z,98876.85
2018-07-26T02:40:49.428Z,98875.83
2018-07-26T02:43:17.717Z,98876.50
2018-07-26T02:45:45.986Z,98879.16
2018-07-26T02:48:14.262Z,98877.52
2018-07-26T02:50:42.402Z,98883.19
2018-07-26T02:53:10.709Z,98882.59
2018-07-26T02:55:39.086Z,98879.16
2018-07-26T02:58:07.550Z,98882.50
2018-07-26T03:00:35.842Z,98882.77
2018-07-26T03:03:04.220Z,98883.94
2018-07-26T03:05:32.598Z,98881.64
2018-07-26T03:08:00.876Z,98887.03
2018-07-26T03:10:29.242Z,98874.40
2018-07-26T03:12:57.126Z,98884.11
2018-07-26T03:15:25.595Z,98884.67
2018-07-26T03:17:53.771Z,98889.83
2018-07-26T03:20:21.941Z,98885.52
2018-07-26T03:22:50.210Z,98891.17
2018-07-26T03:25:18.502Z,98890.22
2018-07-26T03:27:46.766Z,98893.45
2018-07-26T03:30:15.133Z,98897.52
2018-07-26T03:32:43.317Z,98896.86
2018-07-26T03:35:11.697Z,98901.17
2018-07-26T03:37:40.074Z,98907.48
2018-07-26T03:40:08.454Z,98900.52
2018-07-26T03:42:36.832Z,98896.48
2018-07-26T03:45:05.297Z,98903.17
2018-07-26T03:47:33.677Z,98903.84
2018-07-26T03:50:01.969Z,98899.53
2018-07-26T03:52:30.229Z,98899.72
2018-07-26T03:54:58.523Z,98908.27
2018-07-26T03:57:26.889Z,98912.28
2018-07-26T03:59:55.151Z,98913.62
2018-07-26T04:02:23.442Z,98916.55
2018-07-26T04:04:51.719Z,98921.95
2018-07-26T04:07:19.615Z,98915.27
2018-07-26T04:09:47.852Z,98919.33
2018-07-26T04:12:16.131Z,98918.20
2018-07-26T04:14:44.298Z,98916.91
2018-07-26T04:17:12.587Z,98924.76
2018-07-26T04:19:40.848Z,98929.27
2018-07-26T04:22:09.338Z,98926.23
2018-07-26T04:24:37.550Z,98928.33
2018-07-26T04:27:05.892Z,98925.66
2018-07-26T04:29:34.260Z,98928.94
2018-07-26T04:32:02.684Z,98942.02
2018-07-26T04:34:31.018Z,98936.84
2018-07-26T04:36:59.397Z,98938.23
2018-07-26T04:39:27.565Z,98938.13
2018-07-26T04:41:55.940Z,98942.64
2018-07-26T04:44:24.126Z,98942.81
2018-07-26T04:46:52.289Z,98938.45
2018-07-26T04:49:20.568Z,98944.16
2018-07-26T04:51:49.045Z,98951.46
2018-07-26T04:54:17.121Z,98947.95
2018-07-26T04:56:45.488Z,98956.14
2018-07-26T04:59:13.753Z,98954.76
2018-07-26T05:01:41.922Z,98960.42
2018-07-26T05:04:10.221Z,98970.19
2018-07-26T05:06:38.502Z,98964.89
2018-07-26T05:09:08.331Z,98968.27
2018-07-26T05:11:36.781Z,98965.34
2018-07-26T05:14:05.162Z,98976.05
2018-07-26T05:16:33.653Z,98972.56
2018-07-26T05:19:02.073Z,98977.09
2018-07-26T05:21:30.756Z,98982.13
2018-07-26T05:23:59.293Z,98986.50
2018-07-26T05:26:27.665Z,98995.05
2018-07-26T05:28:55.838Z,98995.39
2018-07-26T05:31:24.214Z,98996.92
2018-07-26T05:33:52.606Z,99000.45
2018-07-26T05:36:20.977Z,99000.10
2018-07-26T05:38:49.146Z,99001.27
2018-07-26T05:41:17.520Z,99000.61
2018-07-26T05:43:45.804Z,99007.14
2018-07-26T05:46:14.291Z,99009.31
2018-07-26T05:48:42.653Z,99010.98
2018-07-26T05:51:11.145Z,99010.80
2018-07-26T05:53:39.514Z,99015.98
2018-07-26T05:56:07.992Z,99014.64
2018-07-26T05:58:36.373Z,99013.98
2018-07-26T06:01:04.757Z,99014.48
2018-07-26T06:03:33.125Z,99015.99
2018-07-26T06:06:01.619Z,99021.17
2018-07-26T06:08:29.982Z,99018.97
2018-07-26T06:10:58.301Z,99021.50
2018-07-26T06:13:26.741Z,99027.16
2018-07-26T06:15:55.028Z,99024.84
2018-07-26T06:18:22.861Z,99025.02
2018-07-26T06:20:51.158Z,99031.37
2018-07-26T06:23:19.533Z,99027.17
2018-07-26T06:25:48.229Z,99030.33
2018-07-26T06:28:16.651Z,99030.54
2018-07-26T06:30:44.874Z,99039.09
2018-07-26T06:33:13.366Z,99032.19
2018-07-26T06:35:41.535Z,99033.52
2018-07-26T06:38:09.910Z,99026.61
2018-07-26T06:40:38.177Z,99024.97
2018-07-26T06:43:06.453Z,99025.99
2018-07-26T06:45:34.842Z,99030.80
2018-07-26T06:48:03.120Z,99028.22
2018-07-26T06:50:31.485Z,99032.86
2018-07-26T06:53:00.008Z,99029.80
2018-07-26T06:55:28.341Z,99026.20
2018-07-26T06:57:56.817Z,99028.83
2018-07-26T07:00:25.202Z,99023.14
2018-07-26T07:02:53.614Z,99029.11
2018-07-26T07:05:21.957Z,99022.27
2018-07-26T07:07:50.228Z,99023.52
2018-07-26T07:10:18.621Z,99025.62
2018-07-26T07:12:46.792Z,99027.43
2018-07-26T07:15:15.178Z,99034.14
2018-07-26T07:17:43.428Z,99035.14
2018-07-26T07:20:12.035Z,99026.43
2018-07-26T07:22:40.293Z,99032.17
2018-07-26T07:25:08.682Z,99035.77
2018-07-26T07:27:36.561Z,99046.09
2018-07-26T07:30:06.861Z,99046.86
2018-07-26T07:32:35.146Z,99054.88
2018-07-26T07:35:03.426Z,99054.22
2018-07-26T07:37:31.798Z,99049.23
2018-07-26T07:40:00.083Z,99057.25
2018-07-26T07:42:28.349Z,99055.69
2018-07-26T07:44:56.734Z,99058.99
2018-07-26T07:47:25.150Z,99061.41
2018-07-26T07:49:53.473Z,99069.55
2018-07-26T07:52:21.948Z,99074.95
2018-07-26T07:54:50.237Z,99068.80
2018-07-26T07:57:43.424Z,99069.84
2018-07-26T08:02:22.655Z,99073.37
2018-07-26T08:08:00.512Z,99079.02
2018-07-26T08:10:49.302Z,99079.91
2018-07-26T08:21:33.619Z,99072.03
2018-07-26T08:24:01.893Z,99067.64
2018-07-26T08:26:30.067Z,99067.05
2018-07-26T08:28:58.448Z,99060.53
2018-07-26T08:31:26.824Z,99062.61
2018-07-26T08:33:55.134Z,99060.53
2018-07-26T08:36:23.354Z,99058.68
2018-07-26T08:38:51.756Z,99052.00
2018-07-26T08:41:20.287Z,99046.69
2018-07-26T08:43:48.712Z,99037.42
2018-07-26T08:46:17.081Z,99044.02
2018-07-26T08:48:45.359Z,99039.25
2018-07-26T08:51:13.650Z,99042.53
2018-07-26T08:53:41.914Z,99034.16
2018-07-26T08:56:10.184Z,99037.06
2018-07-26T08:58:38.460Z,99036.44
2018-07-26T09:01:06.839Z,99038.48
2018-07-26T09:03:35.257Z,99032.17
2018-07-26T09:06:03.702Z,99034.20
2018-07-26T09:08:31.873Z,99033.70
2018-07-26T09:11:00.308Z,99032.14
2018-07-26T09:13:28.487Z,99031.81
2018-07-26T09:15:56.727Z,99033.05
2018-07-26T09:18:24.974Z,99031.20
2018-07-26T09:20:53.282Z,99029.89
2018-07-26T09:23:21.729Z,99030.20
2018-07-26T09:25:49.996Z,99027.30
2018-07-26T09:28:18.369Z,99022.69
2018-07-26T09:30:46.566Z,99015.73
2018-07-26T09:33:14.988Z,99011.60
2018-07-26T09:35:42.850Z,99002.84
2018-07-26T09:38:10.966Z,99006.12
2018-07-26T09:40:39.474Z,98999.45
2018-07-26T09:43:07.702Z,99002.53
2018-07-26T09:45:35.893Z,98997.66
2018-07-26T09:48:04.298Z,99000.15
2018-07-26T09:50:32.545Z,98993.53
2018-07-26T09:53:00.926Z,98991.55
2018-07-26T09:55:29.467Z,98989.48
2018-07-26T09:57:57.790Z,98990.45
2018-07-26T10:00:31.510Z,98991.42
2018-07-26T10:02:59.770Z,98993.20
2018-07-26T10:05:27.872Z,98997.16
2018-07-26T10:07:56.928Z,98986.95
2018-07-26T10:10:25.401Z,98982.41
2018-07-26T10:12:53.489Z,98982.91
2018-07-26T10:15:21.788Z,98979.50
2018-07-26T10:17:50.027Z,98984.09
2018-07-26T10:20:18.579Z,98984.33
2018-07-26T10:22:46.894Z,98982.43
2018-07-26T10:25:15.389Z,98988.84
2018-07-26T10:27:43.704Z,98988.07
2018-07-26T10:30:12.026Z,98985.53
2018-07-26T10:32:40.285Z,98981.03
2018-07-26T10:35:08.877Z,98976.50
2018-07-26T10:37:37.167Z,98972.31
2018-07-26T10:40:05.551Z,98980.26
2018-07-26T10:42:33.806Z,98974.02
2018-07-26T10:45:01.678Z,98969.03
2018-07-26T10:47:29.933Z,98969.66
2018-07-26T10:49:58.404Z,98969.60
2018-07-26T10:52:26.714Z,98965.55
2018-07-26T10:54:55.198Z,98964.44
2018-07-26T10:57:23.570Z,98962.27
2018-07-26T10:59:52.056Z,98960.74
2018-07-26T11:02:20.327Z,98966.26
2018-07-26T11:04:48.603Z,98953.33
2018-07-26T11:07:16.765Z,98954.88
2018-07-26T11:09:45.060Z,98955.02
2018-07-26T11:12:13.317Z,98949.13
2018-07-26T11:14:41.499Z,98945.53
2018-07-26T11:17:09.874Z,98938.41
2018-07-26T11:19:38.049Z,98941.97
2018-07-26T11:22:06.321Z,98937.16
2018-07-26T11:24:34.707Z,98940.23
2018-07-26T11:27:02.992Z,98941.09
2018-07-26T11:29:31.403Z,98943.44
2018-07-26T11:31:59.311Z,98947.72
2018-07-26T11:34:27.700Z,98948.56
2018-07-26T11:36:56.080Z,98940.13
2018-07-26T11:39:24.350Z,98936.73
2018-07-26T11:41:52.735Z,98936.01
2018-07-26T11:44:21.176Z,98939.73
2018-07-26T11:46:49.689Z,98926.77
2018-07-26T11:49:18.070Z,98926.11
2018-07-26T11:51:46.445Z,98931.00
2018-07-26T11:54:14.720Z,98935.28
2018-07-26T11:56:43.198Z,98930.09
2018-07-26T11:59:12.133Z,98931.95
2018-07-26T12:01:40.381Z,98931.95
2018-07-26T12:04:08.837Z,98935.50
2018-07-26T12:06:37.213Z,98929.06
2018-07-26T12:09:08.218Z,98928.30
2018-07-26T12:11:36.533Z,98927.13
2018-07-26T12:14:04.910Z,98923.52
2018-07-26T12:16:33.293Z,98924.24
2018-07-26T12:19:01.580Z,98919.17
2018-07-26T12:21:29.951Z,98917.59
2018-07-26T12:23:58.332Z,98924.63
2018-07-26T12:26:26.801Z,98919.42
2018-07-26T12:28:55.077Z,98917.33
2018-07-26T12:31:23.509Z,98910.76
2018-07-26T12:33:51.841Z,98908.14
2018-07-26T12:36:20.015Z,98897.55
2018-07-26T12:38:48.496Z,98905.05
2018-07-26T12:41:16.771Z,98901.30
2018-07-26T12:43:45.154Z,98896.95
2018-07-26T12:46:13.430Z,98901.02
2018-07-26T12:48:41.689Z,98891.81
2018-07-26T12:51:09.976Z,98895.16
2018-07-26T12:53:38.321Z,98884.67
2018-07-26T12:56:06.730Z,98885.39
2018-07-26T12:58:35.317Z,98878.95
2018-07-26T13:01:03.790Z,98879.97
2018-07-26T13:03:32.065Z,98882.27
2018-07-26T13:06:00.471Z,98885.00
2018-07-26T13:08:28.786Z,98882.58
2018-07-26T13:10:56.886Z,98877.59
2018-07-26T13:13:25.170Z,98884.98
2018-07-26T13:15:53.550Z,98886.35
2018-07-26T13:18:21.924Z,98887.25
2018-07-26T13:20:50.302Z,98885.32
2018-07-26T13:23:18.579Z,98878.13
2018-07-26T13:25:47.174Z,98877.38
2018-07-26T13:28:15.629Z,98881.66
2018-07-26T13:30:44.075Z,98885.19
2018-07-26T13:33:13.034Z,98881.75
2018-07-26T13:35:41.649Z,98879.75
2018-07-26T13:38:10.186Z,98873.53
2018-07-26T13:40:38.809Z,98871.47
2018-07-26T13:43:07.245Z,98872.41
2018-07-26T13:45:35.834Z,98867.73
2018-07-26T13:48:04.534Z,98867.81
2018-07-26T13:50:33.108Z,98858.23
2018-07-26T13:53:01.942Z,98859.45
2018-07-26T13:55:31.026Z,98855.89
2018-07-26T13:57:59.554Z,98853.62
2018-07-26T14:00:27.831Z,98851.70
2018-07-26T14:02:56.409Z,98844.72
2018-07-26T14:05:24.687Z,98853.79
2018-07-26T14:07:53.067Z,98851.70
2018-07-26T14:10:21.275Z,98856.53
2018-07-26T14:12:49.605Z,98861.11
2018-07-26T14:15:18.223Z,98866.33
2018-07-26T14:17:46.582Z,98866.17
2018-07-26T14:20:14.990Z,98866.05
2018-07-26T14:22:43.432Z,98867.79
2018-07-26T14:25:11.838Z,98869.87
2018-07-26T14:27:40.029Z,98870.89
2018-07-26T14:30:08.826Z,98878.73
2018-07-26T14:32:37.346Z,98873.78
2018-07-26T14:35:06.047Z,98874.64
2018-07-26T14:37:34.582Z,98872.56
2018-07-26T14:40:03.002Z,98882.44
2018-07-26T14:42:30.996Z,98885.39
2018-07-26T14:44:59.352Z,98880.80
2018-07-26T14:47:27.817Z,98886.05
2018-07-26T14:49:55.749Z,98891.75
2018-07-26T14:52:24.277Z,98889.78
2018-07-26T14:54:52.662Z,98889.05
2018-07-26T14:57:20.710Z,98894.23
2018-07-26T14:59:48.997Z,98890.17
2018-07-26T15:02:17.265Z,98895.91
2018-07-26T15:04:45.564Z,98900.70
2018-07-26T15:07:14.020Z,98894.36
2018-07-26T15:09:42.372Z,98894.16
2018-07-26T15:12:10.786Z,98899.02
2018-07-26T15:14:38.953Z,98896.84
2018-07-26T15:17:07.544Z,98894.33
2018-07-26T15:19:36.065Z,98896.72
2018-07-26T15:22:04.698Z,98894.74
2018-07-26T15:24:33.886Z,98892.98
2018-07-26T15:27:02.291Z,98892.91
2018-07-26T15:29:30.551Z,98889.55
2018-07-26T15:31:58.835Z,98890.80
2018-07-26T15:34:27.193Z,98888.39
2018-07-26T15:36:55.495Z,98893.59
2018-07-26T15:39:23.761Z,98896.08
2018-07-26T15:41:52.243Z,98896.62
2018-07-26T15:44:20.412Z,98892.66
2018-07-26T15:46:48.777Z,98890.39
2018-07-26T15:49:17.074Z,98893.50
2018-07-26T15:51:45.041Z,98895.88
2018-07-26T15:54:13.521Z,98886.94
2018-07-26T15:56:41.785Z,98887.27
2018-07-26T15:59:09.710Z,98888.41
2018-07-26T16:01:38.239Z,98894.94
2018-07-26T16:04:06.466Z,98898.59
2018-07-26T16:06:34.683Z,98901.92
2018-07-26T16:09:02.966Z,98902.63
2018-07-26T16:11:30.946Z,98907.41
2018-07-26T16:13:58.853Z,98901.41
2018-07-26T16:16:26.765Z,98912.84
2018-07-26T16:18:54.709Z,98903.89
2018-07-26T16:21:22.601Z,98904.30
2018-07-26T16:23:50.498Z,98915.48
2018-07-26T16:26:18.417Z,98917.27
2018-07-26T16:28:46.462Z,98926.62
2018-07-26T16:31:14.400Z,98929.09
2018-07-26T16:33:42.514Z,98936.19
2018-07-26T16:36:10.815Z,98939.73
2018-07-26T16:38:39.395Z,98942.65
2018-07-26T16:41:07.682Z,98950.60
2018-07-26T16:43:36.168Z,98956.00
2018-07-26T16:46:04.306Z,98957.80
2018-07-26T16:48:32.819Z,98963.16
2018-07-26T16:51:01.191Z,98970.52
2018-07-26T16:53:29.254Z,98974.58
2018-07-26T16:55:57.639Z,98981.23
2018-07-26T16:58:26.321Z,98983.20
2018-07-26T17:00:54.591Z,98987.87
2018-07-26T17:03:22.978Z,98986.11
2018-07-26T17:05:51.359Z,98994.66
2018-07-26T17:08:19.729Z,98998.30
2018-07-26T17:10:47.913Z,99003.13
2018-07-26T17:13:16.382Z,99003.09
2018-07-26T17:24:28.130Z,99005.23
2018-07-26T17:26:56.406Z,99004.36
2018-07-26T17:29:24.886Z,99004.87
2018-07-26T17:31:53.050Z,99007.27
2018-07-26T17:34:21.328Z,99016.24
2018-07-26T17:40:30.972Z,99019.45
2018-07-26T17:47:25.647Z,99025.67
2018-07-26T17:59:51.752Z,99024.79
2018-07-26T18:08:56.240Z,99040.19
2018-07-26T18:11:25.457Z,99042.28
2018-07-26T18:13:53.933Z,99049.86
2018-07-26T18:16:22.824Z,99049.66
2018-07-26T18:18:51.165Z,99055.42
2018-07-26T18:21:19.790Z,99051.88
2018-07-26T18:23:48.070Z,99058.75
2018-07-26T18:26:16.623Z,99057.98
2018-07-26T18:28:44.929Z,99056.97
2018-07-26T18:31:13.307Z,99063.23
2018-07-26T18:33:41.369Z,99060.53
2018-07-26T18:36:09.654Z,99062.86
2018-07-26T18:38:37.930Z,99069.73
2018-07-26T18:41:06.175Z,99070.87
2018-07-26T18:43:34.494Z,99071.45
2018-07-26T18:46:02.957Z,99073.64
2018-07-26T18:48:31.228Z,99076.66
2018-07-26T18:50:59.510Z,99077.87
2018-07-26T18:53:27.889Z,99081.71
2018-07-26T18:55:56.158Z,99087.68
2018-07-26T18:58:24.433Z,99090.42
2018-07-26T19:00:52.909Z,99088.36
2018-07-26T19:03:21.405Z,99089.71
2018-07-26T19:05:49.674Z,99091.29
2018-07-26T19:08:18.158Z,99090.86
2018-07-26T19:10:46.458Z,99092.70
2018-07-26T19:13:14.810Z,99097.94
2018-07-26T19:15:43.178Z,99100.63
2018-07-26T19:18:11.470Z,99103.05
2018-07-26T19:20:39.431Z,99103.89
2018-07-26T19:23:07.802Z,99094.78
2018-07-26T19:25:36.081Z,99100.84
2018-07-26T19:42:17.017Z,99095.38
2018-07-26T19:53:17.642Z,99100.56
2018-07-26T19:56:05.617Z,99104.16
2018-07-26T20:03:11.105Z,99106.09
2018-07-26T20:06:20.333Z,99105.78
2018-07-26T20:18:42.193Z,99121.44
2018-07-26T20:29:08.955Z,99125.91
2018-07-26T20:36:43.196Z,99127.91
2018-07-26T20:39:41.799Z,99134.59
2018-07-26T20:42:59.752Z,99126.66
2018-07-26T20:50:43.565Z,99129.41
2018-07-26T20:53:52.610Z,99143.11
2018-07-26T20:56:59.578Z,99136.84
2018-07-26T21:03:27.680Z,99137.48
2018-07-26T21:06:35.326Z,99144.91
2018-07-26T21:09:41.959Z,99144.05
2018-07-26T21:12:46.508Z,99140.86
2018-07-26T21:15:46.894Z,99144.61
2018-07-26T21:24:14.821Z,99140.63
2018-07-26T21:27:03.026Z,99140.66
2018-07-26T21:29:57.538Z,99141.63
2018-07-26T21:33:06.977Z,99141.42
2018-07-26T21:36:27.713Z,99137.48
2018-07-26T21:48:29.624Z,99138.02
2018-07-26T21:53:12.930Z,99138.89
2018-07-26T21:59:08.348Z,99161.72
2018-07-26T22:08:40.122Z,99156.56
2018-07-26T22:11:51.115Z,99158.86
2018-07-26T22:14:40.102Z,99161.39
2018-07-26T22:18:13.254Z,99163.14
2018-07-26T22:24:35.844Z,99170.52
2018-07-26T22:27:29.659Z,99173.45
2018-07-26T22:55:39.007Z,99177.67
2018-07-26T23:11:13.779Z,99167.72
2018-07-26T23:14:32.854Z,99161.81
2018-07-26T23:17:17.618Z,99163.36
2018-07-26T23:35:19.191Z,99130.47
2018-07-26T23:41:28.046Z,99109.86
2018-07-26T23:47:26.451Z,99117.09
2018-07-26T23:53:11.177Z,99116.41
